> <
  • 1
  • 2

Novidades

  • Temos o prazer de lhe apresentar… Ler mais +
  • Está disponível a secção Multimédia no… Ler mais +
  • 1
[source: ADDS]
METAR
LPPR 242330Z 06004KT 9999 VCSH FEW018 07/05 Q1013 =
TAF
TAF LPPR 242300Z 2500/2524 08008KT 9999 FEW018 TEMPO 2500/2524 8000 SHRA BKN015 FEW025CB BECMG 2512/2515 16012KT SCT025 PROB30 TEMPO 2515/2524 16017G30KT 3000 TSRAGS BKN012 SCT018CB =

contactos